createdAt,value
2018-01-26T00:00:20.696Z,93.99
2018-01-26T00:02:49.123Z,94.15
2018-01-26T00:05:17.504Z,94.08
2018-01-26T00:07:45.876Z,94.00
2018-01-26T00:10:14.269Z,93.99
2018-01-26T00:12:42.925Z,93.63
2018-01-26T00:15:11.351Z,93.64
2018-01-26T00:17:39.745Z,93.82
2018-01-26T00:20:08.149Z,94.05
2018-01-26T00:22:37.377Z,94.12
2018-01-26T00:25:05.750Z,94.17
2018-01-26T00:27:34.312Z,93.96
2018-01-26T00:30:02.776Z,93.87
2018-01-26T00:32:31.219Z,93.80
2018-01-26T00:34:59.597Z,93.70
2018-01-26T00:37:28.061Z,94.22
2018-01-26T00:39:56.435Z,94.55
2018-01-26T00:42:24.810Z,94.37
2018-01-26T00:44:53.243Z,94.29
2018-01-26T00:47:21.617Z,94.28
2018-01-26T00:49:50.769Z,94.29
2018-01-26T00:52:19.128Z,94.27
2018-01-26T00:54:47.484Z,94.40
2018-01-26T00:57:15.877Z,94.36
2018-01-26T00:59:44.238Z,94.37
2018-01-26T01:02:12.599Z,94.14
2018-01-26T01:04:41.804Z,94.01
2018-01-26T01:07:10.178Z,93.73
2018-01-26T01:09:39.395Z,93.68
2018-01-26T01:12:07.761Z,93.90
2018-01-26T01:14:36.965Z,93.85
2018-01-26T01:17:05.386Z,94.27
2018-01-26T01:19:33.843Z,94.40
2018-01-26T01:22:02.278Z,94.46
2018-01-26T01:24:31.486Z,94.22
2018-01-26T01:27:00.697Z,94.31
2018-01-26T01:29:29.081Z,94.41
2018-01-26T01:31:57.560Z,94.26
2018-01-26T01:34:26.072Z,94.28
2018-01-26T01:36:54.624Z,94.45
2018-01-26T01:39:23.087Z,94.54
2018-01-26T01:41:52.331Z,94.62
2018-01-26T01:44:20.763Z,94.62
2018-01-26T01:46:50.094Z,94.65
2018-01-26T01:49:18.635Z,94.74
2018-01-26T01:51:47.063Z,95.02
2018-01-26T01:54:15.448Z,95.11
2018-01-26T01:56:43.905Z,95.18
2018-01-26T01:59:12.424Z,95.14
2018-01-26T02:01:40.887Z,95.42
2018-01-26T02:04:09.337Z,95.33
2018-01-26T02:06:38.508Z,95.26
2018-01-26T02:09:06.896Z,95.46
2018-01-26T02:11:35.355Z,95.34
2018-01-26T02:14:03.721Z,95.50
2018-01-26T02:16:32.087Z,95.80
2018-01-26T02:19:00.480Z,95.79
2018-01-26T02:21:28.919Z,95.83
2018-01-26T02:23:57.279Z,95.72
2018-01-26T02:26:25.685Z,95.96
2018-01-26T02:28:54.156Z,95.90
2018-01-26T02:31:22.573Z,95.92
2018-01-26T02:33:50.994Z,95.83
2018-01-26T02:36:19.385Z,95.77
2018-01-26T02:38:48.518Z,95.83
2018-01-26T02:41:16.880Z,95.92
2018-01-26T02:43:45.351Z,95.64
2018-01-26T02:46:13.740Z,95.38
2018-01-26T02:48:42.187Z,95.91
2018-01-26T02:51:11.437Z,96.04
2018-01-26T02:53:39.845Z,96.11
2018-01-26T02:56:08.233Z,96.03
2018-01-26T02:58:36.638Z,96.10
2018-01-26T03:01:05.862Z,96.28
2018-01-26T03:03:34.278Z,96.23
2018-01-26T03:06:02.739Z,96.25
2018-01-26T03:08:31.189Z,96.39
2018-01-26T03:11:00.403Z,96.45
2018-01-26T03:13:29.021Z,96.51
2018-01-26T03:15:57.514Z,96.63
2018-01-26T03:18:25.977Z,96.84
2018-01-26T03:20:54.411Z,96.92
2018-01-26T03:23:23.548Z,97.06
2018-01-26T03:25:51.921Z,96.91
2018-01-26T03:28:20.329Z,97.02
2018-01-26T03:30:48.784Z,97.08
2018-01-26T03:33:17.240Z,97.08
2018-01-26T03:35:45.738Z,97.14
2018-01-26T03:38:14.208Z,97.17
2018-01-26T03:40:42.685Z,97.15
2018-01-26T03:43:11.183Z,97.02
2018-01-26T03:45:39.628Z,96.96
2018-01-26T03:48:08.803Z,96.94
2018-01-26T03:50:37.320Z,97.16
2018-01-26T03:53:05.760Z,97.33
2018-01-26T03:55:34.223Z,97.40
2018-01-26T03:58:02.739Z,97.48
2018-01-26T04:00:31.889Z,97.43
2018-01-26T04:03:00.307Z,97.33
2018-01-26T04:05:28.799Z,97.28
2018-01-26T04:07:57.948Z,97.28
2018-01-26T04:10:26.355Z,97.29
2018-01-26T04:12:54.801Z,97.19
2018-01-26T04:15:23.164Z,97.17
2018-01-26T04:17:51.565Z,97.20
2018-01-26T04:20:19.995Z,96.97
2018-01-26T04:22:49.164Z,96.84
2018-01-26T04:25:17.601Z,96.80
2018-01-26T04:27:46.029Z,96.83
2018-01-26T04:30:14.478Z,96.62
2018-01-26T04:32:42.853Z,96.50
2018-01-26T04:35:11.226Z,96.48
2018-01-26T04:37:39.655Z,96.40
2018-01-26T04:40:08.047Z,96.36
2018-01-26T04:42:36.464Z,96.29
2018-01-26T04:45:04.912Z,96.32
2018-01-26T04:47:34.045Z,96.39
2018-01-26T04:50:02.552Z,96.07
2018-01-26T04:52:30.944Z,96.14
2018-01-26T04:54:59.597Z,96.09
2018-01-26T04:57:28.026Z,96.15
2018-01-26T04:59:57.189Z,96.23
2018-01-26T05:02:25.650Z,96.29
2018-01-26T05:04:54.091Z,96.08
2018-01-26T05:07:23.248Z,96.08
2018-01-26T05:09:51.671Z,95.98
2018-01-26T05:12:20.890Z,96.04
2018-01-26T05:14:49.464Z,96.08
2018-01-26T05:17:17.832Z,95.96
2018-01-26T05:19:47.030Z,95.81
2018-01-26T05:22:16.276Z,95.80
2018-01-26T05:24:44.740Z,95.76
2018-01-26T05:27:13.163Z,96.00
2018-01-26T05:29:41.545Z,95.82
2018-01-26T05:32:09.975Z,95.89
2018-01-26T05:34:38.360Z,95.76
2018-01-26T05:37:06.799Z,95.88
2018-01-26T05:39:35.242Z,96.32
2018-01-26T05:42:03.697Z,96.42
2018-01-26T05:44:32.183Z,96.32
2018-01-26T05:47:00.657Z,96.37
2018-01-26T05:49:29.050Z,96.45
2018-01-26T05:51:57.417Z,96.35
2018-01-26T05:54:25.891Z,96.55
2018-01-26T05:56:54.333Z,96.75
2018-01-26T05:59:22.791Z,96.69
2018-01-26T06:01:51.310Z,96.81
2018-01-26T06:04:20.547Z,97.10
2018-01-26T06:06:48.974Z,97.19
2018-01-26T06:09:17.420Z,97.15
2018-01-26T06:11:45.788Z,97.17
2018-01-26T06:14:14.227Z,97.21
2018-01-26T06:16:43.455Z,97.16
2018-01-26T06:19:11.914Z,97.35
2018-01-26T06:21:40.375Z,97.39
2018-01-26T06:24:08.813Z,97.47
2018-01-26T06:26:37.149Z,97.41
2018-01-26T06:29:05.557Z,97.37
2018-01-26T06:31:33.999Z,97.42
2018-01-26T06:34:02.436Z,97.25
2018-01-26T06:36:30.902Z,97.31
2018-01-26T06:38:59.328Z,97.18
2018-01-26T06:41:27.771Z,97.05
2018-01-26T06:43:56.229Z,96.99
2018-01-26T06:46:24.652Z,97.05
2018-01-26T06:48:53.020Z,97.11
2018-01-26T06:51:21.475Z,97.10
2018-01-26T06:53:49.903Z,96.92
2018-01-26T06:56:18.282Z,96.78
2018-01-26T06:58:46.648Z,96.57
2018-01-26T07:01:15.092Z,96.39
2018-01-26T07:03:43.559Z,96.25
2018-01-26T07:06:12.751Z,96.20
2018-01-26T07:08:41.916Z,96.08
2018-01-26T07:11:10.277Z,96.01
2018-01-26T07:13:38.628Z,95.81
2018-01-26T07:16:07.006Z,95.82
2018-01-26T07:18:35.369Z,95.73
2018-01-26T07:21:04.509Z,95.67
2018-01-26T07:23:32.881Z,95.35
2018-01-26T07:26:01.366Z,95.43
2018-01-26T07:28:29.753Z,95.70
2018-01-26T07:30:58.113Z,95.60
2018-01-26T07:33:26.559Z,95.69
2018-01-26T07:35:55.036Z,95.84
2018-01-26T07:38:24.899Z,95.88
2018-01-26T07:40:53.264Z,95.75
2018-01-26T07:43:21.632Z,95.66
2018-01-26T07:45:49.992Z,95.60
2018-01-26T07:48:19.218Z,95.47
2018-01-26T07:50:47.584Z,95.26
2018-01-26T07:53:16.003Z,95.18
2018-01-26T07:55:44.473Z,95.45
2018-01-26T07:58:12.840Z,95.25
2018-01-26T08:00:41.259Z,95.53
2018-01-26T08:03:09.719Z,95.34
2018-01-26T08:05:38.151Z,95.16
2018-01-26T08:08:07.441Z,95.30
2018-01-26T08:10:35.859Z,95.27
2018-01-26T08:13:04.221Z,95.12
2018-01-26T08:15:32.613Z,95.04
2018-01-26T08:18:01.035Z,94.79
2018-01-26T08:20:29.417Z,94.78
2018-01-26T08:22:57.788Z,94.81
2018-01-26T08:25:26.149Z,94.75
2018-01-26T08:27:54.591Z,94.40
2018-01-26T08:30:23.025Z,94.06
2018-01-26T08:32:51.477Z,93.54
2018-01-26T08:35:19.852Z,93.69
2018-01-26T08:37:48.271Z,93.27
2018-01-26T08:40:16.708Z,92.92
2018-01-26T08:42:45.143Z,92.75
2018-01-26T08:45:13.607Z,92.45
2018-01-26T08:47:41.996Z,92.69
2018-01-26T08:50:10.420Z,92.45
2018-01-26T08:52:38.870Z,92.35
2018-01-26T08:58:05.940Z,92.18
2018-01-26T09:00:34.348Z,92.19
2018-01-26T09:03:02.759Z,92.58
2018-01-26T09:05:31.166Z,92.83
2018-01-26T09:07:59.552Z,92.32
2018-01-26T09:10:27.914Z,91.95
2018-01-26T09:12:56.341Z,91.64
2018-01-26T09:15:24.795Z,91.77
2018-01-26T09:17:53.175Z,91.90
2018-01-26T09:20:21.687Z,91.31
2018-01-26T09:22:50.193Z,91.28
2018-01-26T09:25:18.628Z,91.66
2018-01-26T09:27:47.167Z,91.94
2018-01-26T09:30:15.750Z,91.42
2018-01-26T09:32:44.220Z,90.87
2018-01-26T09:35:12.675Z,91.17
2018-01-26T09:37:41.092Z,90.64
2018-01-26T09:40:09.511Z,89.72
2018-01-26T09:42:37.893Z,90.10
2018-01-26T09:45:06.423Z,89.54
2018-01-26T09:47:34.878Z,90.20
2018-01-26T09:50:04.101Z,90.62
2018-01-26T09:52:32.480Z,90.51
2018-01-26T09:55:00.853Z,90.45
2018-01-26T09:57:30.064Z,89.70
2018-01-26T09:59:58.432Z,90.54
2018-01-26T10:02:27.721Z,91.12
2018-01-26T10:04:56.868Z,90.28
2018-01-26T10:07:25.312Z,89.32
2018-01-26T10:09:53.778Z,89.69
2018-01-26T10:12:22.307Z,89.51
2018-01-26T10:14:50.722Z,89.27
2018-01-26T10:17:19.923Z,89.40
2018-01-26T10:19:49.163Z,89.77
2018-01-26T10:22:17.600Z,89.83
2018-01-26T10:24:46.120Z,90.16
2018-01-26T10:27:14.704Z,89.41
2018-01-26T10:29:43.171Z,89.29
2018-01-26T10:32:11.768Z,88.41
2018-01-26T10:34:40.240Z,88.01
2018-01-26T10:37:08.688Z,88.94
2018-01-26T10:39:37.054Z,88.58
2018-01-26T10:42:05.431Z,87.70
2018-01-26T10:44:33.899Z,88.41
2018-01-26T10:47:02.337Z,88.30
2018-01-26T10:49:30.717Z,87.61
2018-01-26T10:51:59.183Z,87.08
2018-01-26T10:54:28.329Z,85.64
2018-01-26T10:56:56.703Z,85.39
2018-01-26T10:59:25.258Z,85.36
2018-01-26T11:01:53.715Z,84.56
2018-01-26T11:04:22.929Z,83.38
2018-01-26T11:06:51.300Z,84.46
2018-01-26T11:09:20.436Z,85.73
2018-01-26T11:11:48.830Z,85.39
2018-01-26T11:14:17.364Z,86.41
2018-01-26T11:16:45.750Z,86.51
2018-01-26T11:19:14.149Z,85.94
2018-01-26T11:21:42.511Z,85.55
2018-01-26T11:24:10.952Z,86.39
2018-01-26T11:26:40.084Z,87.61
2018-01-26T11:29:08.630Z,87.77
2018-01-26T11:31:37.828Z,87.47
2018-01-26T11:34:07.172Z,86.92
2018-01-26T11:36:35.563Z,86.49
2018-01-26T11:39:03.920Z,86.44
2018-01-26T11:41:32.364Z,87.22
2018-01-26T11:44:01.504Z,86.77
2018-01-26T11:46:29.869Z,86.73
2018-01-26T11:48:58.337Z,86.03
2018-01-26T11:51:27.473Z,85.61
2018-01-26T11:53:55.860Z,84.90
2018-01-26T11:56:24.241Z,85.38
2018-01-26T11:58:52.605Z,85.26
2018-01-26T12:01:20.990Z,85.30
2018-01-26T12:03:49.406Z,86.18
2018-01-26T12:06:17.892Z,86.48
2018-01-26T12:08:47.103Z,86.24
2018-01-26T12:11:15.479Z,86.70
2018-01-26T12:13:44.778Z,86.50
2018-01-26T12:16:13.894Z,84.58
2018-01-26T12:18:42.313Z,85.44
2018-01-26T12:21:10.712Z,84.28
2018-01-26T12:23:39.077Z,81.09
2018-01-26T12:26:07.499Z,80.23
2018-01-26T12:28:35.888Z,81.16
2018-01-26T12:31:04.276Z,81.53
2018-01-26T12:33:32.704Z,82.45
2018-01-26T12:36:01.081Z,82.73
2018-01-26T12:38:29.583Z,82.92
2018-01-26T12:40:58.808Z,83.29
2018-01-26T12:43:27.226Z,84.41
2018-01-26T12:45:55.609Z,84.97
2018-01-26T12:48:23.994Z,84.55
2018-01-26T12:50:52.546Z,84.50
2018-01-26T12:53:21.066Z,84.51
2018-01-26T12:55:49.509Z,84.95
2018-01-26T12:58:18.042Z,83.76
2018-01-26T13:00:47.250Z,83.70
2018-01-26T13:03:15.669Z,83.21
2018-01-26T13:05:44.032Z,82.29
2018-01-26T13:08:12.409Z,82.28
2018-01-26T13:10:40.797Z,82.40
2018-01-26T13:13:09.194Z,82.19
2018-01-26T13:15:37.548Z,83.56
2018-01-26T13:18:06.024Z,83.60
2018-01-26T13:20:34.491Z,84.06
2018-01-26T13:23:03.003Z,84.58
2018-01-26T13:25:31.480Z,85.06
2018-01-26T13:27:59.985Z,84.75
2018-01-26T13:30:28.544Z,85.38
2018-01-26T13:32:56.921Z,85.38
2018-01-26T13:35:25.371Z,84.67
2018-01-26T13:37:53.866Z,83.71
2018-01-26T13:40:22.252Z,83.33
2018-01-26T13:42:50.630Z,83.83
2018-01-26T13:45:19.018Z,83.64
2018-01-26T13:47:47.437Z,83.41
2018-01-26T13:50:15.923Z,83.56
2018-01-26T13:52:45.176Z,83.14
2018-01-26T13:55:13.613Z,83.60
2018-01-26T13:57:41.976Z,83.66
2018-01-26T14:00:10.426Z,82.73
2018-01-26T14:02:38.809Z,83.15
2018-01-26T14:05:07.270Z,83.03
2018-01-26T14:07:35.836Z,82.47
2018-01-26T14:10:04.257Z,82.82
2018-01-26T14:12:32.693Z,82.87
2018-01-26T14:15:01.052Z,83.13
2018-01-26T14:17:30.386Z,83.34
2018-01-26T14:19:58.836Z,83.30
2018-01-26T14:22:28.004Z,84.10
2018-01-26T14:24:56.355Z,83.26
2018-01-26T14:27:24.830Z,83.11
2018-01-26T14:29:53.294Z,83.44
2018-01-26T14:32:21.737Z,83.41
2018-01-26T14:34:50.951Z,83.82
2018-01-26T14:37:19.442Z,83.43
2018-01-26T14:39:47.881Z,84.32
2018-01-26T14:42:16.582Z,84.29
2018-01-26T14:44:45.820Z,84.10
2018-01-26T14:47:14.190Z,84.44
2018-01-26T14:49:42.650Z,84.76
2018-01-26T14:52:11.821Z,84.74
2018-01-26T14:54:40.260Z,84.81
2018-01-26T14:57:08.690Z,85.19
2018-01-26T14:59:37.853Z,85.51
2018-01-26T15:02:06.367Z,85.65
2018-01-26T15:04:34.802Z,84.89
2018-01-26T15:07:03.199Z,85.11
2018-01-26T15:09:31.566Z,85.23
2018-01-26T15:12:00.005Z,85.04
2018-01-26T15:14:28.400Z,85.55
2018-01-26T15:16:56.864Z,86.03
2018-01-26T15:19:25.356Z,86.00
2018-01-26T15:21:53.839Z,86.20
2018-01-26T15:24:22.231Z,86.25
2018-01-26T15:26:50.655Z,85.61
2018-01-26T15:29:19.032Z,85.75
2018-01-26T15:31:47.487Z,85.61
2018-01-26T15:34:15.865Z,86.05
2018-01-26T15:36:44.432Z,85.98
2018-01-26T15:39:12.967Z,86.08
2018-01-26T15:41:42.110Z,85.98
2018-01-26T15:44:10.687Z,86.01
2018-01-26T15:46:39.057Z,85.83
2018-01-26T15:49:07.495Z,85.87
2018-01-26T15:51:36.191Z,86.29
2018-01-26T15:54:05.452Z,86.27
2018-01-26T15:56:33.891Z,86.23
2018-01-26T15:59:02.292Z,86.34
2018-01-26T16:01:30.679Z,86.52
2018-01-26T16:03:59.117Z,87.40
2018-01-26T16:06:28.321Z,87.58
2018-01-26T16:08:56.782Z,87.63
2018-01-26T16:11:26.012Z,87.72
2018-01-26T16:13:54.546Z,87.68
2018-01-26T16:16:23.043Z,87.84
2018-01-26T16:18:52.189Z,87.88
2018-01-26T16:21:20.625Z,87.79
2018-01-26T16:23:49.766Z,87.40
2018-01-26T16:26:18.290Z,86.16
2018-01-26T16:28:47.468Z,86.56
2018-01-26T16:31:15.895Z,86.15
2018-01-26T16:33:44.284Z,86.12
2018-01-26T16:36:12.751Z,86.51
2018-01-26T16:38:41.311Z,86.53
2018-01-26T16:41:10.445Z,86.76
2018-01-26T16:43:38.899Z,86.87
2018-01-26T16:46:08.066Z,86.92
2018-01-26T16:48:36.629Z,87.10
2018-01-26T16:51:05.183Z,86.73
2018-01-26T16:53:33.635Z,86.63
2018-01-26T16:56:02.932Z,86.67
2018-01-26T16:58:32.128Z,87.00
2018-01-26T17:01:01.329Z,87.03
2018-01-26T17:03:29.794Z,87.35
2018-01-26T17:05:58.178Z,87.72
2018-01-26T17:08:26.659Z,87.99
2018-01-26T17:10:55.540Z,87.85
2018-01-26T17:13:24.793Z,87.75
2018-01-26T17:15:53.181Z,87.64
2018-01-26T17:18:21.585Z,87.80
2018-01-26T17:20:49.988Z,87.70
2018-01-26T17:23:18.516Z,87.85
2018-01-26T17:25:46.988Z,88.00
2018-01-26T17:28:15.354Z,88.39
2018-01-26T17:30:44.583Z,88.16
2018-01-26T17:33:12.970Z,88.21
2018-01-26T17:35:41.407Z,88.41
2018-01-26T17:38:10.621Z,88.46
2018-01-26T17:40:39.009Z,88.60
2018-01-26T17:43:07.412Z,88.60
2018-01-26T17:45:36.091Z,88.67
2018-01-26T17:48:04.500Z,88.83
2018-01-26T17:50:32.927Z,89.08
2018-01-26T17:53:01.356Z,92.59
2018-01-26T17:55:29.724Z,93.10
2018-01-26T17:57:58.096Z,87.30
2018-01-26T18:00:26.468Z,87.42
2018-01-26T18:02:54.899Z,87.76
2018-01-26T18:05:23.328Z,88.32
2018-01-26T18:07:51.788Z,88.44
2018-01-26T18:10:20.246Z,88.25
2018-01-26T18:12:48.622Z,88.02
2018-01-26T18:15:17.836Z,87.83
2018-01-26T18:17:46.339Z,88.20
2018-01-26T18:20:14.782Z,88.54
2018-01-26T18:22:43.159Z,88.60
2018-01-26T18:25:12.359Z,88.57
2018-01-26T18:27:40.822Z,88.96
2018-01-26T18:30:09.334Z,89.14
2018-01-26T18:32:37.716Z,89.17
2018-01-26T18:35:06.070Z,94.41
2018-01-26T18:37:35.299Z,86.52
2018-01-26T18:40:03.748Z,87.45
2018-01-26T18:42:32.971Z,88.01
2018-01-26T18:45:01.583Z,88.29
2018-01-26T18:47:29.968Z,88.55
2018-01-26T18:49:58.362Z,88.56
2018-01-26T18:52:26.728Z,88.78
2018-01-26T18:54:55.106Z,89.22
2018-01-26T18:57:23.639Z,89.17
2018-01-26T18:59:52.033Z,89.23
2018-01-26T19:02:20.446Z,89.42
2018-01-26T19:04:48.921Z,89.40
2018-01-26T19:07:17.286Z,89.32
2018-01-26T19:09:45.672Z,89.05
2018-01-26T19:12:14.075Z,89.94
2018-01-26T19:14:42.699Z,89.71
2018-01-26T19:17:11.127Z,89.59
2018-01-26T19:19:39.549Z,89.55
2018-01-26T19:22:08.782Z,89.56
2018-01-26T19:24:37.264Z,89.33
2018-01-26T19:27:05.708Z,89.03
2018-01-26T19:29:34.909Z,88.63
2018-01-26T19:32:03.324Z,88.28
2018-01-26T19:34:31.807Z,88.50
2018-01-26T19:37:00.260Z,89.11
2018-01-26T19:39:28.762Z,89.26
2018-01-26T19:41:57.450Z,89.22
2018-01-26T19:44:26.788Z,89.16
2018-01-26T19:46:56.795Z,89.28
2018-01-26T19:49:25.209Z,89.26
2018-01-26T19:51:54.435Z,89.23
2018-01-26T19:54:22.955Z,89.15
2018-01-26T19:56:51.420Z,89.14
2018-01-26T19:59:19.874Z,89.42
2018-01-26T20:01:48.507Z,89.63
2018-01-26T20:07:29.033Z,90.41
2018-01-26T20:09:57.419Z,90.30
2018-01-26T20:12:25.841Z,90.16
2018-01-26T20:14:54.301Z,90.17
2018-01-26T20:17:22.803Z,90.30
2018-01-26T20:19:52.055Z,90.52
2018-01-26T20:22:20.457Z,90.59
2018-01-26T20:24:49.705Z,90.81
2018-01-26T20:27:18.235Z,91.02
2018-01-26T20:29:47.279Z,91.18
2018-01-26T20:32:20.541Z,91.30
2018-01-26T20:34:49.000Z,91.21
2018-01-26T20:37:17.480Z,91.34
2018-01-26T20:39:45.927Z,91.44
2018-01-26T20:42:14.406Z,91.60
2018-01-26T20:44:42.850Z,91.42
2018-01-26T20:47:12.065Z,91.09
2018-01-26T20:49:40.570Z,91.23
2018-01-26T20:52:09.007Z,91.18
2018-01-26T20:54:37.554Z,91.16
2018-01-26T20:57:05.992Z,91.28
2018-01-26T20:59:35.212Z,91.16
2018-01-26T21:02:03.615Z,91.02
2018-01-26T21:04:32.050Z,91.21
2018-01-26T21:07:01.283Z,91.19
2018-01-26T21:09:29.661Z,91.29
2018-01-26T21:11:58.073Z,90.88
2018-01-26T21:14:26.586Z,90.78
2018-01-26T21:16:55.047Z,90.62
2018-01-26T21:19:24.217Z,90.58
2018-01-26T21:21:52.680Z,90.47
2018-01-26T21:24:21.124Z,90.51
2018-01-26T21:26:49.573Z,90.60
2018-01-26T21:29:18.046Z,90.71
2018-01-26T21:31:46.475Z,91.08
2018-01-26T21:34:14.868Z,91.23
2018-01-26T21:36:43.321Z,91.73
2018-01-26T21:39:11.695Z,91.80
2018-01-26T21:41:40.900Z,92.06
2018-01-26T21:44:10.142Z,92.28
2018-01-26T21:46:38.642Z,92.30
2018-01-26T21:49:07.056Z,92.35
2018-01-26T21:51:36.281Z,92.41
2018-01-26T21:54:04.711Z,92.43
2018-01-26T21:56:33.220Z,92.64
2018-01-26T21:59:01.673Z,92.79
2018-01-26T22:01:30.157Z,92.86
2018-01-26T22:03:59.556Z,92.94
2018-01-26T22:06:33.521Z,92.76
2018-01-26T22:09:01.970Z,92.80
2018-01-26T22:11:31.242Z,92.57
2018-01-26T22:13:59.744Z,92.79
2018-01-26T22:16:28.211Z,92.97
2018-01-26T22:18:56.770Z,93.13
2018-01-26T22:21:25.191Z,93.06
2018-01-26T22:23:54.572Z,93.02
2018-01-26T22:26:23.012Z,93.07
2018-01-26T22:28:51.455Z,93.02
2018-01-26T22:31:20.748Z,93.00
2018-01-26T22:33:49.279Z,93.04
2018-01-26T22:36:17.795Z,93.34
2018-01-26T22:38:46.275Z,93.44
2018-01-26T22:41:14.721Z,93.46
2018-01-26T22:43:43.123Z,93.42
2018-01-26T22:46:11.603Z,93.45
2018-01-26T22:48:40.088Z,93.41
2018-01-26T22:51:08.573Z,93.54
2018-01-26T22:53:37.008Z,93.46
2018-01-26T22:56:05.409Z,93.46
2018-01-26T22:58:33.915Z,93.21
2018-01-26T23:01:03.171Z,93.01
2018-01-26T23:03:31.722Z,92.91
2018-01-26T23:06:00.097Z,92.73
2018-01-26T23:08:28.479Z,92.58
2018-01-26T23:10:56.961Z,92.24
2018-01-26T23:13:26.146Z,92.06
2018-01-26T23:15:54.598Z,92.19
2018-01-26T23:18:22.997Z,92.37
2018-01-26T23:20:51.430Z,92.41
2018-01-26T23:23:20.044Z,92.41
2018-01-26T23:25:48.492Z,92.35
2018-01-26T23:28:16.908Z,92.42
2018-01-26T23:30:46.197Z,92.60
2018-01-26T23:33:14.627Z,92.76
2018-01-26T23:35:43.082Z,92.68
2018-01-26T23:38:11.488Z,92.45
2018-01-26T23:40:40.031Z,92.38
2018-01-26T23:43:08.582Z,92.64
2018-01-26T23:45:36.971Z,92.87
2018-01-26T23:48:05.386Z,93.04
2018-01-26T23:50:33.833Z,93.19
2018-01-26T23:53:02.295Z,93.18
2018-01-26T23:55:30.835Z,93.17
2018-01-26T23:57:59.248Z,93.13
